Picayune, MS

16:41 CDT le 22 octobre 2014 (GMT -0500)
Hide_A_Way Lake ~OWX | Change Station
CLOSE
Current Station
Stations météorologiques personnelles
Location: Carriere, MS
Altitude: 100 ft
Stations météo à proximité

Alt. 100 ft 30.58 °N, 89.65 °W | Updated 0 second ago

Ciel dégagé
Ciel dégagé
79.3 ° F
Paraît 80 ° F
N
5.0
Vent Variable Vent de ENE
Gusts 11.0 mph

Aujourd'hui
Haut(e) -- | Bas -- ° F
--% Risque de précip.
Hier
Haut(e) -- | Bas -- ° F
Precip. -- pouce
7:05 AM 6:19 PM
Lune descendante, 1% visible
Pression 30.02 pouce
Visibilité 10.0 Miles terrestres
Nuages Ciel dégagé
indice de chaleur 80 ° F
Point de rosée 57 ° F
Humidité 47%
Précipitations 0.00 pouce
Profondeur de la couche neigeuse Non disponible.
UV 0.6 sur 12
Pollen 3.60 sur 12
Ozone Bon
PM2.5 Bon
Flu Activity No Activity
METAR KASD 222053Z AUTO 02007KT 10SM CLR 27/10 A3002 RMK AO2 SLP165 T02670100 56015

More Conditions Fewer Conditions

Pression 30.02 pouce
Visibilité 10.0 Miles terrestres
Nuages Ciel dégagé
indice de chaleur 80 ° F
Point de rosée 57 ° F
Humidité 47%
Précipitations 0.00 pouce
Profondeur de la couche neigeuse Non disponible.
UV 0.6 sur 12
Pollen 3.60 sur 12
Ozone Bon
PM2.5 Bon
Flu Activity No Activity
METAR KASD 222053Z AUTO 02007KT 10SM CLR 27/10 A3002 RMK AO2 SLP165 T02670100 56015

More Conditions Fewer Conditions

10-Day Weather Forecast

Almanac

Astronomie

Oct. 22, 2014 Lever Coucher
Temps réel 07:05 CDT 18:19 CDT
Crépuscule civil 06:41 CDT 18:44 CDT
Crépuscule nautique 06:13 CDT 19:12 CDT
Crépuscule astronomique 05:45 CDT 19:40 CDT
Lune 05:52 CDT 17:43 CDT
Durée de lumière visible 12h 03m
Longueur du jour
11h 14m
Tomorrow will be 1m 43s shorter.
Lune descendante, 1% of the Moon is Illuminated
Aujourd'hui
Lune descendante
Oct 23
Nouveau
Oct 30
Premier quartier
Nov 6
Pleine lune
Nov 14
Dernier quartier

Extrêmes aujourd'hui

State Highs State Lows

Community

WunderPhotos

Upload Photos

1,764,047 Photos téléchargées !

WunderBlogs® & News

By Dr. Jeff Masters
Director of Meteorology, Weather Underground
By Kari Strenfel
Meteorologist, Weather Underground
By Christopher C. Burt
Weather Historian, Weather Underground
October 22, 2014
October 22, 2014
October 22, 2014

Nearby

Qualité de l'air

  Qualité de l'air Indice de la qualité de l'air Polluant
Hier Bon
PM2.5
Hier Bon
OZONE
Actuel Bon
OZONE
Actuel Bon
PM2.5
mercredi Moyen
PM2.5
mercredi Bon
OZONE
jeudi Bon
OZONE
jeudi Bon
PM2.5
vendredi Bon
OZONE
vendredi Bon
PM2.5
samedi Bon
OZONE
samedi Bon
PM2.5

Épaisseur de neige

Station Depth Altitude
Pas de nouvelles chutes de neige

Activité sismique

Ville Distance Mag. Time & Date
No recent earthquake activity has been reported nearby.
Minimum magnitude displayed is 2.5.

Températures des eaux côtières

Lieu Température
Aucun rapport de station

Stations météo à proximité